Airfield :
LOGIN :

Register | Disclaimer

   EN    FR    IT 

 










Legend :    VFR   Marginal VFR   IFR   Intensive IFR   Very Intensive IFR
Visi :
Ceiling :
>= 8 km
>= 3000ft
5 to 8 km
1000 to 3000 ft
1500m to 5 km
500 to 1000 ft
800 to 1500m
200 to 500 ft
< 800m
< 200 ft
Symbols :   Thunderstorms  Fog  Heavy snow  Heavy precipitations  Wind > 20 kt
SIGMETs :     Misc.  Thunderstorms  Icing  Turbulence  Mountain Waves  Volcanic Ashes






- Airport Elevation : 13 ft
- IATA code : GOA


LIMJ - Genoa Cristoforo Colombo

CURRENT METAR :
  • 090920Z 04004KT 360V060 9999 FEW020 13/07 Q1008

EXPIRED METARs :
  • 090850Z 04005KT 360V080 9999 FEW020 12/07 Q1008
  • 090820Z VRB03KT 9999 FEW020 12/06 Q1008
  • 090750Z 05005KT 020V090 9999 FEW020 11/06 Q1008
  • 090720Z 05008KT 360V070 9999 FEW020 11/06 Q1007
  • 090650Z 05010KT 9999 FEW020 SCT028 12/07 Q1008

TAF TAF LIMJ
Valid from the 09 at 06:00 until the 10 at 06:00 UTC


090500Z 0906/1006 04005KT 9999 SCT035
BECMG 0921/0924 01015KT
TEMPO 1000/1006 01015G30KT



MET'MAP, your aeronautical weather chart ! - Copyright ORBIFLY December 2007 - Disclaimer

ORBIFLY MET'MAP TEAM :

Programming & Development : Alexandra Zaïnal
Concept & original design : Baudouin d'Aumeries
Assistance for programming : Marc-Olivier Méhu
Technical & hardware support : Manuel Goepfert

Contact : metmap@orbifly.com




SOURCES & CREDITS :

   NOAA